Time;durP1;ratioP1;P1;durP2;ratioP2;P2;SDS_P1;SDS_P2;PMS_P1;PMS_P2;Temp;Humidity;BMP_temperature;BMP_pressure;BME280_temperature;BME280_humidity;BME280_pressure;Samples;Min_cycle;Max_cycle;Signal;HPM_P1;HPM_P2
2022/11/03 00:01:11;;;;;;;10.07;1.83;;;10.80;99.90;;;;;;7373869;19;20022;-57
2022/11/03 00:03:37;;;;;;;10.43;3.33;;;10.90;99.90;;;;;;7378799;19;20474;-59
2022/11/03 00:06:04;;;;;;;11.50;3.17;;;10.90;99.90;;;;;;7372617;19;20022;-59
2022/11/03 00:08:38;;;;;;;11.73;2.72;;;10.90;99.90;;;;;;7373928;19;20490;-58
2022/11/03 00:11:13;;;;;;;10.15;2.08;;;10.90;99.90;;;;;;7374684;19;20478;-57
2022/11/03 00:13:42;;;;;;;9.20;2.25;;;10.80;99.90;;;;;;7374762;19;20014;-57
2022/11/03 00:16:10;;;;;;;11.77;2.05;;;10.80;99.90;;;;;;7374550;19;20016;-58
2022/11/03 00:18:37;;;;;;;10.68;2.25;;;10.80;99.90;;;;;;7375871;19;20405;-58
2022/11/03 00:21:08;;;;;;;10.57;2.22;;;10.80;99.90;;;;;;7373405;19;20502;-58
2022/11/03 00:23:40;;;;;;;7.95;2.05;;;10.80;99.90;;;;;;7377260;19;20026;-58
2022/11/03 00:26:08;;;;;;;;;;;10.80;99.90;;;;;;7375719;19;20019;-58
2022/11/03 00:28:35;;;;;;;10.25;2.47;;;10.70;99.90;;;;;;7376885;19;19947;-58
2022/11/03 00:31:15;;;;;;;11.82;2.40;;;10.70;99.90;;;;;;7372854;19;20633;-57
2022/11/03 00:33:42;;;;;;;11.07;2.17;;;10.70;99.90;;;;;;7377513;19;20014;-58
2022/11/03 00:36:17;;;;;;;11.27;2.20;;;10.80;99.90;;;;;;7371341;19;20018;-58
2022/11/03 00:38:44;;;;;;;8.35;2.45;;;10.70;99.90;;;;;;7373326;19;20022;-58
2022/11/03 00:41:14;;;;;;;8.55;2.88;;;10.60;99.90;;;;;;7374619;19;20021;-60
2022/11/03 00:43:40;;;;;;;11.93;2.50;;;10.60;99.90;;;;;;7375619;19;20018;-60
2022/11/03 00:46:08;;;;;;;10.32;2.15;;;10.60;99.90;;;;;;7374962;19;20022;-59
2022/11/03 00:48:35;;;;;;;14.45;3.25;;;10.60;99.90;;;;;;7375079;19;20689;-59
2022/11/03 00:51:04;;;;;;;7.85;2.00;;;10.60;99.90;;;;;;7372462;19;20379;-59
2022/11/03 00:53:32;;;;;;;11.73;2.58;;;10.50;99.90;;;;;;7375439;19;20052;-58
2022/11/03 00:56:00;;;;;;;9.05;2.97;;;10.50;99.90;;;;;;7373120;19;20098;-59
2022/11/03 00:58:26;;;;;;;11.88;3.08;;;10.50;99.90;;;;;;7374337;19;20014;-59
2022/11/03 01:01:15;;;;;;;8.40;2.20;;;10.50;99.90;;;;;;7375191;19;20114;-59
2022/11/03 01:06:49;;;;;;;6.95;2.58;;;10.40;99.90;;;;;;7375768;19;20026;-59
2022/11/03 01:09:16;;;;;;;8.48;2.83;;;10.40;99.90;;;;;;7373389;19;20399;-58
2022/11/03 01:11:49;;;;;;;12.63;2.58;;;10.30;99.90;;;;;;7371658;19;20039;-58
2022/11/03 01:14:16;;;;;;;14.55;3.35;;;10.30;99.90;;;;;;7371038;19;20014;-58
2022/11/03 01:16:43;;;;;;;10.23;2.50;;;10.30;99.90;;;;;;7371645;19;20370;-60
2022/11/03 01:19:09;;;;;;;11.93;2.75;;;10.30;99.90;;;;;;7368080;19;20503;-61
2022/11/03 01:21:35;;;;;;;10.35;2.50;;;10.20;99.90;;;;;;7367400;19;20018;-60
2022/11/03 01:24:04;;;;;;;12.55;3.03;;;10.30;99.90;;;;;;7367489;19;20720;-60
2022/11/03 01:26:30;;;;;;;12.88;2.83;;;10.20;99.90;;;;;;7364741;19;20434;-59
2022/11/03 01:28:59;;;;;;;12.43;2.47;;;10.20;99.90;;;;;;7369451;19;20026;-59
2022/11/03 01:31:26;;;;;;;12.45;2.88;;;10.20;99.90;;;;;;7365186;19;20438;-58
2022/11/03 01:33:54;;;;;;;12.52;2.83;;;10.20;99.90;;;;;;7367485;19;20035;-59
2022/11/03 01:36:21;;;;;;;10.13;2.75;;;10.20;99.90;;;;;;7365183;19;20018;-59
2022/11/03 01:38:47;;;;;;;9.02;3.00;;;10.20;99.90;;;;;;7367581;19;20025;-59
2022/11/03 01:41:17;;;;;;;10.00;2.53;;;10.30;99.90;;;;;;7364664;19;20026;-59
2022/11/03 01:43:43;;;;;;;11.90;3.45;;;10.20;99.90;;;;;;7370559;19;20030;-59
2022/11/03 01:46:10;;;;;;;11.13;3.00;;;10.30;99.90;;;;;;7368458;19;20025;-59
2022/11/03 01:48:42;;;;;;;9.45;2.70;;;10.20;99.90;;;;;;7374486;19;20760;-59
2022/11/03 01:51:11;;;;;;;9.05;2.33;;;10.20;99.90;;;;;;7371589;19;20018;-59
2022/11/03 01:53:41;;;;;;;8.05;2.08;;;10.20;99.90;;;;;;7373500;19;20018;-58
2022/11/03 01:56:09;;;;;;;8.38;1.98;;;10.20;99.90;;;;;;7367977;19;20018;-59
2022/11/03 01:58:38;;;;;;;7.57;2.15;;;10.20;99.90;;;;;;7375590;19;20007;-58
2022/11/03 02:01:05;;;;;;;9.57;3.03;;;10.20;99.90;;;;;;7368604;19;20474;-58
2022/11/03 02:03:56;;;;;;;8.77;2.85;;;10.30;99.90;;;;;;7370432;19;20018;-59
2022/11/03 02:06:26;;;;;;;10.93;3.33;;;10.30;99.90;;;;;;7371457;19;20590;-59
2022/11/03 02:09:00;;;;;;;10.48;2.92;;;10.30;99.90;;;;;;7374098;19;20042;-59
2022/11/03 02:14:13;;;;;;;10.02;2.45;;;10.30;99.90;;;;;;7373127;19;20041;-58
2022/11/03 02:16:42;;;;;;;10.57;2.45;;;10.30;99.90;;;;;;7371470;19;20441;-57
2022/11/03 02:19:30;;;;;;;12.25;3.13;;;10.30;99.90;;;;;;7371483;19;20014;-57
2022/11/03 02:22:13;;;;;;;8.60;2.53;;;10.30;99.90;;;;;;7369517;19;20018;-58
2022/11/03 02:24:50;;;;;;;7.03;2.42;;;10.30;99.90;;;;;;7367887;19;20035;-58
2022/11/03 02:27:18;;;;;;;8.85;2.17;;;10.30;99.90;;;;;;7368013;19;20439;-58
2022/11/03 02:29:45;;;;;;;9.13;2.92;;;10.30;99.90;;;;;;7368014;19;20374;-58
2022/11/03 02:32:21;;;;;;;13.00;2.63;;;10.40;99.90;;;;;;7365975;19;20054;-57
2022/11/03 02:34:53;;;;;;;10.75;2.88;;;10.30;99.90;;;;;;7375396;19;20082;-58
2022/11/03 02:37:27;;;;;;;11.82;2.92;;;10.30;99.90;;;;;;7373636;19;20490;-58
2022/11/03 02:40:07;;;;;;;9.23;2.30;;;10.30;99.90;;;;;;7377362;19;20089;-58
2022/11/03 02:42:36;;;;;;;15.68;3.45;;;10.30;99.90;;;;;;7380297;19;20034;-57
2022/11/03 02:45:07;;;;;;;9.25;2.40;;;10.30;99.90;;;;;;7377862;19;20420;-58
2022/11/03 02:47:36;;;;;;;10.15;2.30;;;10.30;99.90;;;;;;7374310;19;20022;-59
2022/11/03 02:50:07;;;;;;;8.45;2.17;;;10.30;99.90;;;;;;7378025;19;20023;-57
2022/11/03 02:52:40;;;;;;;8.93;2.40;;;10.40;99.90;;;;;;7373911;19;20021;-58
2022/11/03 02:55:25;;;;;;;17.30;2.83;;;10.40;99.90;;;;;;7377019;19;20026;-57
2022/11/03 02:58:09;;;;;;;14.48;3.85;;;10.40;99.90;;;;;;7379268;19;20018;-58
2022/11/03 03:01:13;;;;;;;9.45;2.28;;;10.50;99.90;;;;;;7375773;19;20505;-57
2022/11/03 03:03:51;;;;;;;13.68;2.80;;;10.40;99.90;;;;;;7375498;19;20018;-58
2022/11/03 03:06:34;;;;;;;11.25;2.30;;;10.40;99.90;;;;;;7373345;19;20037;-58
2022/11/03 03:09:05;;;;;;;12.57;2.42;;;10.40;99.90;;;;;;7370136;19;20428;-59
2022/11/03 03:11:36;;;;;;;10.07;2.43;;;10.40;99.90;;;;;;7367691;19;20027;-58
2022/11/03 03:14:14;;;;;;;7.72;2.10;;;10.50;99.90;;;;;;7372244;19;20019;-57
2022/11/03 03:17:21;;;;;;;12.02;2.85;;;10.50;99.90;;;;;;7375666;19;20486;-57
2022/11/03 03:20:00;;;;;;;10.20;2.45;;;10.50;99.90;;;;;;7370214;19;20026;-57
2022/11/03 03:22:29;;;;;;;7.68;2.33;;;10.40;99.90;;;;;;7369406;19;20011;-57
2022/11/03 03:25:25;;;;;;;10.20;2.50;;;10.50;99.90;;;;;;7372448;19;20482;-58
2022/11/03 03:28:10;;;;;;;13.07;2.33;;;10.40;99.90;;;;;;7369571;19;20422;-58
2022/11/03 03:30:38;;;;;;;14.32;2.75;;;10.40;99.90;;;;;;7371198;19;20481;-58
2022/11/03 03:33:06;;;;;;;13.50;2.85;;;10.50;99.90;;;;;;7369683;19;20026;-58
2022/11/03 03:35:35;;;;;;;13.38;2.65;;;10.50;99.90;;;;;;7371204;19;20946;-60
2022/11/03 03:38:07;;;;;;;7.50;2.50;;;10.60;99.90;;;;;;7368463;19;20410;-59
2022/11/03 03:40:37;;;;;;;9.77;2.17;;;10.60;99.90;;;;;;7367427;19;20614;-58
2022/11/03 03:43:07;;;;;;;12.30;2.45;;;10.60;99.90;;;;;;7368621;19;20039;-59
2022/11/03 03:45:35;;;;;;;12.07;2.60;;;10.50;99.90;;;;;;7372888;19;20022;-58
2022/11/03 03:48:03;;;;;;;10.57;2.35;;;10.50;99.90;;;;;;7370247;19;20498;-60
2022/11/03 03:50:34;;;;;;;10.77;2.85;;;10.40;99.90;;;;;;7363224;19;20379;-60
2022/11/03 03:53:05;;;;;;;6.25;2.17;;;10.50;99.90;;;;;;7368159;19;20613;-60
2022/11/03 03:55:41;;;;;;;11.18;2.75;;;10.50;99.90;;;;;;7368493;19;20039;-59
2022/11/03 03:58:12;;;;;;;13.40;3.20;;;10.50;99.90;;;;;;7370439;19;20014;-59
2022/11/03 04:00:41;;;;;;;10.02;2.45;;;10.40;99.90;;;;;;7368980;19;20685;-60
2022/11/03 04:03:20;;;;;;;13.00;2.90;;;10.50;99.90;;;;;;7370794;19;20382;-59
2022/11/03 04:05:47;;;;;;;11.25;2.45;;;10.50;99.90;;;;;;7370726;19;20019;-59
2022/11/03 04:08:15;;;;;;;10.93;2.90;;;10.40;99.90;;;;;;7367990;19;20471;-59
2022/11/03 04:24:26;;;;;;;9.20;2.33;;;10.40;99.90;;;;;;7370273;19;20762;-59
2022/11/03 04:26:56;;;;;;;14.63;3.20;;;10.30;99.90;;;;;;7370291;19;20026;-59
2022/11/03 04:29:22;;;;;;;8.68;2.38;;;10.30;99.90;;;;;;7371985;19;20030;-59
2022/11/03 04:31:48;;;;;;;9.60;2.28;;;10.30;99.90;;;;;;7370373;19;20367;-58
2022/11/03 04:34:15;;;;;;;7.18;2.63;;;10.30;99.90;;;;;;7369881;19;20019;-57
2022/11/03 04:36:41;;;;;;;8.80;2.97;;;10.30;99.90;;;;;;7370410;19;20368;-58
2022/11/03 04:39:20;;;;;;;13.52;2.90;;;10.30;99.90;;;;;;7368260;19;20018;-57
2022/11/03 04:41:47;;;;;;;7.45;2.00;;;10.30;99.90;;;;;;7370282;19;20035;-57
2022/11/03 04:44:15;;;;;;;9.07;2.33;;;10.30;99.90;;;;;;7368331;19;20006;-57
2022/11/03 04:46:47;;;;;;;8.07;2.30;;;10.30;99.90;;;;;;7368051;19;20025;-60
2022/11/03 04:49:22;;;;;;;6.93;2.22;;;10.30;99.90;;;;;;7366032;19;20010;-59
2022/11/03 04:51:49;;;;;;;12.65;2.85;;;10.30;99.90;;;;;;7365228;19;20499;-57
2022/11/03 04:54:20;;;;;;;7.40;2.20;;;10.30;99.90;;;;;;7365370;19;20021;-59
2022/11/03 04:56:46;;;;;;;9.15;3.33;;;10.30;99.90;;;;;;7366535;19;20014;-59
2022/11/03 04:59:17;;;;;;;10.50;2.58;;;10.40;99.90;;;;;;7370393;19;20022;-59
2022/11/03 05:01:44;;;;;;;10.23;2.78;;;10.30;99.90;;;;;;7364498;19;20554;-59
2022/11/03 05:04:18;;;;;;;13.25;3.40;;;10.40;99.90;;;;;;7364971;19;20010;-58
2022/11/03 05:06:52;;;;;;;10.38;2.75;;;10.50;99.90;;;;;;7368841;19;20026;-59
2022/11/03 05:09:29;;;;;;;10.40;3.08;;;10.50;99.90;;;;;;7366947;19;20052;-59
2022/11/03 05:11:56;;;;;;;9.98;2.42;;;10.60;99.90;;;;;;7363605;19;20020;-59
2022/11/03 05:14:29;;;;;;;9.77;2.55;;;10.60;99.90;;;;;;7366052;19;20018;-58
2022/11/03 05:16:56;;;;;;;9.38;3.08;;;10.60;99.90;;;;;;7366036;19;20026;-58
2022/11/03 05:19:31;;;;;;;9.77;3.03;;;10.60;99.90;;;;;;7368048;19;20121;-57
2022/11/03 05:22:00;;;;;;;9.50;2.60;;;10.50;99.90;;;;;;7365470;19;20014;-57
2022/11/03 05:24:26;;;;;;;13.05;2.80;;;10.50;99.90;;;;;;7370048;19;20015;-58
2022/11/03 05:26:55;;;;;;;10.20;2.35;;;10.50;99.90;;;;;;7365254;19;20502;-57
2022/11/03 05:29:37;;;;;;;7.68;2.28;;;10.50;99.90;;;;;;7369696;19;20019;-57
2022/11/03 05:32:22;;;;;;;7.90;2.30;;;10.50;99.90;;;;;;7360716;19;20022;-57
2022/11/03 05:34:50;;;;;;;13.15;2.92;;;10.50;99.90;;;;;;7367679;19;20022;-57
2022/11/03 05:37:34;;;;;;;10.25;2.97;;;10.40;99.90;;;;;;7366052;19;20388;-58
2022/11/03 05:40:13;;;;;;;10.77;2.50;;;10.40;99.90;;;;;;7362512;19;20014;-59
2022/11/03 05:42:41;;;;;;;7.32;2.40;;;10.50;99.90;;;;;;7365595;19;20022;-59
2022/11/03 05:45:23;;;;;;;11.45;2.92;;;10.40;99.90;;;;;;7365881;19;20017;-59
2022/11/03 05:47:54;;;;;;;9.25;2.72;;;10.40;99.90;;;;;;7366235;19;20033;-58
2022/11/03 05:50:20;;;;;;;7.05;2.45;;;10.50;99.90;;;;;;7361629;19;20090;-60
2022/11/03 05:52:50;;;;;;;6.88;2.75;;;10.50;99.90;;;;;;7364330;19;20653;-59
2022/11/03 05:55:29;;;;;;;7.57;2.60;;;10.50;99.90;;;;;;7364720;19;20014;-59
2022/11/03 05:57:58;;;;;;;9.40;3.05;;;10.40;99.90;;;;;;7362608;19;20058;-59
2022/11/03 06:00:28;;;;;;;11.70;2.92;;;10.40;99.90;;;;;;7362428;19;20438;-59
2022/11/03 06:02:55;;;;;;;9.25;3.00;;;10.30;99.90;;;;;;7364598;19;20022;-59
2022/11/03 06:05:23;;;;;;;10.10;2.85;;;10.30;99.90;;;;;;7362732;19;20469;-58
2022/11/03 06:07:53;;;;;;;9.63;2.83;;;10.40;99.90;;;;;;7365984;19;20604;-57
2022/11/03 06:10:26;;;;;;;13.10;3.05;;;10.50;99.90;;;;;;7363036;19;20028;-57
2022/11/03 06:13:03;;;;;;;9.27;2.53;;;10.40;99.90;;;;;;7365302;19;20062;-61
2022/11/03 06:15:34;;;;;;;8.90;2.85;;;10.40;99.90;;;;;;7366995;19;20018;-59
2022/11/03 06:18:13;;;;;;;13.27;3.58;;;10.40;99.90;;;;;;7364190;19;20014;-60
2022/11/03 06:20:52;;;;;;;11.57;3.05;;;10.40;99.90;;;;;;7370887;19;20600;-57
2022/11/03 06:23:19;;;;;;;11.13;3.03;;;10.40;99.90;;;;;;7361997;19;20565;-59
2022/11/03 06:25:47;;;;;;;9.15;2.88;;;10.40;99.90;;;;;;7366208;19;20403;-59
2022/11/03 06:28:36;;;;;;;10.13;2.90;;;10.40;99.90;;;;;;7364766;19;20489;-58
2022/11/03 06:31:18;;;;;;;15.25;3.97;;;10.40;99.90;;;;;;7361844;19;20350;-59
2022/11/03 06:33:45;;;;;;;6.50;2.58;;;10.40;99.90;;;;;;7363490;19;20461;-59
2022/11/03 06:36:21;;;;;;;10.95;3.13;;;10.30;99.90;;;;;;7370294;19;20030;-59
2022/11/03 06:39:10;;;;;;;12.10;3.17;;;10.30;99.90;;;;;;7372238;19;20097;-57
2022/11/03 06:41:36;;;;;;;9.07;2.38;;;10.30;99.90;;;;;;7375012;19;20022;-57
2022/11/03 06:44:23;;;;;;;8.70;3.63;;;10.30;99.90;;;;;;7372304;19;20018;-57
2022/11/03 06:46:53;;;;;;;10.00;2.58;;;10.30;99.90;;;;;;7372189;19;20018;-57
2022/11/03 06:49:22;;;;;;;11.77;3.00;;;10.30;99.90;;;;;;7371718;19;20014;-59
2022/11/03 06:51:49;;;;;;;11.80;3.10;;;10.30;99.90;;;;;;7372964;19;20039;-60
2022/11/03 06:54:16;;;;;;;9.43;2.88;;;10.30;99.90;;;;;;7367689;19;20061;-59
2022/11/03 06:56:43;;;;;;;10.05;3.33;;;10.40;99.90;;;;;;7373998;19;20452;-59
2022/11/03 06:59:14;;;;;;;10.80;3.58;;;10.40;99.90;;;;;;7370024;19;20015;-59
2022/11/03 07:01:41;;;;;;;10.75;3.00;;;10.50;99.90;;;;;;7359968;19;20561;-60
2022/11/03 07:04:21;;;;;;;9.82;3.17;;;10.50;99.90;;;;;;7358139;19;20031;-60
2022/11/03 07:06:48;;;;;;;9.35;3.13;;;10.60;99.90;;;;;;7360710;19;20025;-59
2022/11/03 07:09:20;;;;;;;16.13;4.88;;;10.60;99.90;;;;;;7360985;19;20581;-61
2022/11/03 07:11:53;;;;;;;10.60;3.07;;;10.60;99.90;;;;;;7360011;19;20603;-60
2022/11/03 07:14:21;;;;;;;12.50;3.53;;;10.70;99.90;;;;;;7364554;19;20765;-60
2022/11/03 07:16:51;;;;;;;12.07;3.40;;;10.70;99.90;;;;;;7361221;19;20026;-59
2022/11/03 07:19:26;;;;;;;13.07;3.17;;;10.80;99.90;;;;;;7365768;19;20031;-60
2022/11/03 07:21:57;;;;;;;9.85;2.78;;;10.90;99.90;;;;;;7370685;19;20027;-61
2022/11/03 07:24:30;;;;;;;10.48;2.75;;;10.90;99.90;;;;;;7371276;19;20023;-60
2022/11/03 07:27:27;;;;;;;10.10;2.75;;;11.00;99.90;;;;;;7375050;19;20023;-61
2022/11/03 07:30:11;;;;;;;11.50;4.82;;;11.10;99.90;;;;;;7375304;19;20524;-61
2022/11/03 07:32:38;;;;;;;10.93;3.15;;;11.20;99.90;;;;;;7373223;19;20380;-61
2022/11/03 07:35:17;;;;;;;16.25;5.75;;;11.30;99.90;;;;;;7372378;19;20385;-61
2022/11/03 07:37:49;;;;;;;8.30;2.33;;;11.30;99.90;;;;;;7374323;19;20053;-61
2022/11/03 07:40:22;;;;;;;11.25;3.05;;;11.40;99.90;;;;;;7371575;19;20026;-60
2022/11/03 07:42:56;;;;;;;10.15;3.10;;;11.40;99.90;;;;;;7375821;19;20018;-60
2022/11/03 07:45:38;;;;;;;10.32;3.45;;;11.50;99.90;;;;;;7368931;19;20485;-59
2022/11/03 07:48:27;;;;;;;11.57;3.17;;;11.50;99.90;;;;;;7375172;19;20029;-59
2022/11/03 07:50:56;;;;;;;11.45;3.17;;;11.60;99.90;;;;;;7373424;19;20022;-58
2022/11/03 07:53:35;;;;;;;10.40;3.65;;;11.60;99.90;;;;;;7372972;19;20026;-58
2022/11/03 07:56:12;;;;;;;10.65;2.90;;;11.70;99.90;;;;;;7367635;19;20022;-60
2022/11/03 07:58:40;;;;;;;9.38;3.88;;;11.70;99.90;;;;;;7371040;19;20478;-60
2022/11/03 08:01:24;;;;;;;11.60;3.17;;;11.80;99.90;;;;;;7365175;19;20069;-58
2022/11/03 08:03:52;;;;;;;12.43;3.45;;;11.90;99.90;;;;;;7368250;19;20027;-58
2022/11/03 08:06:18;;;;;;;11.10;3.25;;;11.90;99.90;;;;;;7366329;19;20011;-60
2022/11/03 08:08:44;;;;;;;9.13;3.17;;;12.00;99.90;;;;;;7369189;19;20010;-60
2022/11/03 08:11:11;;;;;;;10.35;3.40;;;12.10;99.90;;;;;;7360872;19;20025;-60
2022/11/03 08:13:37;;;;;;;7.63;2.75;;;12.10;99.90;;;;;;7362785;19;20379;-60
2022/11/03 08:16:04;;;;;;;7.15;2.67;;;12.20;99.90;;;;;;7368456;19;20022;-60
2022/11/03 08:18:30;;;;;;;10.07;3.58;;;12.30;99.90;;;;;;7368903;19;20496;-60
2022/11/03 08:20:57;;;;;;;12.73;3.42;;;12.40;99.90;;;;;;7362966;19;20600;-58
2022/11/03 08:23:23;;;;;;;8.48;3.17;;;12.70;99.90;;;;;;7362281;19;20010;-60
2022/11/03 08:25:49;;;;;;;8.00;2.88;;;12.80;99.90;;;;;;7364429;19;20010;-60
2022/11/03 08:28:15;;;;;;;10.40;3.03;;;12.90;99.90;;;;;;7364405;19;20801;-60
2022/11/03 08:30:41;;;;;;;9.68;3.33;;;12.90;99.90;;;;;;7368114;19;20047;-60
2022/11/03 08:33:08;;;;;;;7.82;3.15;;;12.80;99.90;;;;;;7370158;19;20397;-61
2022/11/03 08:35:34;;;;;;;10.02;2.80;;;12.80;99.90;;;;;;7367911;19;20027;-60
2022/11/03 08:38:00;;;;;;;10.00;3.25;;;12.90;99.90;;;;;;7369629;19;20478;-60
2022/11/03 08:40:26;;;;;;;9.02;2.92;;;12.90;99.90;;;;;;7369658;19;20455;-60
2022/11/03 08:42:53;;;;;;;10.82;3.30;;;12.90;99.90;;;;;;7367587;19;20053;-60
2022/11/03 08:45:19;;;;;;;10.70;2.90;;;13.00;99.90;;;;;;7369639;19;20090;-60
2022/11/03 08:47:45;;;;;;;14.75;3.95;;;13.00;99.90;;;;;;7370590;19;20078;-60
2022/11/03 08:50:11;;;;;;;12.02;3.92;;;13.00;99.90;;;;;;7367409;19;20046;-61
2022/11/03 08:52:37;;;;;;;9.27;3.38;;;13.00;99.90;;;;;;7365809;19;20398;-60
2022/11/03 08:55:04;;;;;;;11.73;3.67;;;13.00;99.90;;;;;;7361131;19;20492;-60
2022/11/03 08:57:31;;;;;;;11.18;2.88;;;13.00;99.90;;;;;;7368603;19;20029;-60
2022/11/03 08:59:57;;;;;;;10.93;2.90;;;13.00;99.90;;;;;;7365857;19;20022;-60
2022/11/03 09:02:24;;;;;;;10.85;3.20;;;13.00;99.90;;;;;;7367215;19;20015;-60
2022/11/03 09:04:50;;;;;;;10.15;3.33;;;13.00;99.90;;;;;;7370833;19;20483;-60
2022/11/03 09:07:16;;;;;;;12.10;3.67;;;13.10;99.90;;;;;;7370062;19;20022;-60
2022/11/03 09:09:43;;;;;;;5.78;2.50;;;13.20;99.90;;;;;;7367710;19;20026;-60
2022/11/03 09:12:10;;;;;;;10.32;2.83;;;13.20;99.90;;;;;;7366100;19;20512;-60
2022/11/03 09:14:36;;;;;;;12.73;3.25;;;13.20;99.90;;;;;;7367735;19;20018;-59
2022/11/03 09:17:02;;;;;;;7.90;2.70;;;13.30;99.90;;;;;;7372966;19;20696;-60
2022/11/03 09:19:29;;;;;;;10.35;3.38;;;13.40;99.90;;;;;;7370432;19;20019;-59
2022/11/03 09:21:59;;;;;;;8.07;2.88;;;13.50;99.90;;;;;;7366733;19;20369;-59
2022/11/03 09:24:26;;;;;;;8.27;2.60;;;13.60;99.90;;;;;;7369914;19;20021;-59
2022/11/03 09:26:52;;;;;;;8.43;3.03;;;13.80;99.90;;;;;;7369405;19;20015;-60
2022/11/03 09:29:19;;;;;;;11.95;3.17;;;13.90;99.90;;;;;;7368575;19;20022;-59
2022/11/03 09:31:45;;;;;;;10.75;2.97;;;14.00;99.90;;;;;;7366318;19;20051;-59
2022/11/03 09:34:12;;;;;;;10.25;3.35;;;14.10;99.90;;;;;;7369263;19;20021;-60
2022/11/03 09:36:39;;;;;;;8.07;2.67;;;14.30;99.90;;;;;;7368042;19;20474;-59
2022/11/03 09:39:05;;;;;;;8.80;2.83;;;14.70;99.90;;;;;;7371220;19;20403;-58
2022/11/03 09:41:31;;;;;;;11.25;2.90;;;15.00;99.90;;;;;;7363624;19;20014;-59
2022/11/03 09:43:59;;;;;;;10.90;3.03;;;15.50;99.90;;;;;;7370856;19;20069;-59
2022/11/03 09:46:27;;;;;;;10.73;2.95;;;15.90;99.90;;;;;;7365001;19;20029;-60
2022/11/03 09:48:55;;;;;;;8.30;2.92;;;16.50;99.90;;;;;;7369109;19;21776;-58
2022/11/03 09:51:23;;;;;;;9.40;2.45;;;17.00;99.90;;;;;;7368351;19;20368;-59
2022/11/03 09:53:49;;;;;;;9.35;2.70;;;17.10;99.90;;;;;;7368284;19;20026;-59
2022/11/03 09:56:20;;;;;;;9.68;2.80;;;16.80;99.90;;;;;;7365503;19;20092;-60
2022/11/03 09:58:46;;;;;;;6.18;2.70;;;16.50;99.90;;;;;;7369665;19;20383;-60
2022/11/03 10:01:13;;;;;;;8.05;2.33;;;16.10;99.90;;;;;;7364099;19;20110;-59
2022/11/03 10:03:39;;;;;;;11.50;2.78;;;16.00;99.90;;;;;;7364656;19;20019;-58
2022/11/03 10:06:06;;;;;;;9.40;3.25;;;15.90;99.90;;;;;;7359443;19;20103;-59
2022/11/03 10:08:36;;;;;;;11.32;3.15;;;15.60;99.90;;;;;;7364461;19;20838;-59
2022/11/03 10:11:05;;;;;;;7.80;2.58;;;15.80;99.90;;;;;;7362284;19;20085;-59
2022/11/03 10:13:44;;;;;;;10.30;2.70;;;16.00;99.90;;;;;;7362205;19;20023;-60
2022/11/03 10:16:21;;;;;;;9.45;2.63;;;16.00;99.90;;;;;;7361036;19;20023;-58
2022/11/03 10:18:48;;;;;;;9.13;2.10;;;16.00;99.90;;;;;;7364219;19;20123;-58
2022/11/03 10:21:19;;;;;;;11.20;2.88;;;16.10;99.90;;;;;;7361311;19;20485;-59
2022/11/03 10:23:49;;;;;;;9.50;2.67;;;16.40;99.90;;;;;;7362695;19;20018;-58
2022/11/03 10:26:17;;;;;;;10.18;2.95;;;16.50;99.90;;;;;;7362595;19;20011;-58
2022/11/03 10:28:58;;;;;;;9.85;2.90;;;16.40;99.90;;;;;;7363452;19;20018;-59
2022/11/03 10:31:37;;;;;;;12.35;2.92;;;16.40;99.90;;;;;;7360310;19;20028;-58
2022/11/03 10:34:05;;;;;;;8.18;2.63;;;16.30;99.90;;;;;;7360320;19;20015;-58
2022/11/03 10:36:33;;;;;;;8.93;2.70;;;16.20;99.90;;;;;;7355840;19;20022;-58
2022/11/03 10:39:28;;;;;;;8.43;3.22;;;16.10;99.90;;;;;;7358078;19;20015;-58
2022/11/03 10:41:57;;;;;;;9.73;2.78;;;15.90;99.90;;;;;;7360864;19;20015;-58
2022/11/03 10:44:26;;;;;;;8.10;2.40;;;16.10;99.90;;;;;;7362293;19;20741;-58
2022/11/03 10:46:59;;;;;;;7.88;2.28;;;16.20;99.90;;;;;;7361187;19;20042;-59
2022/11/03 10:49:36;;;;;;;8.18;2.63;;;16.20;99.90;;;;;;7359071;19;20512;-58
2022/11/03 10:52:19;;;;;;;5.78;2.22;;;16.00;99.90;;;;;;7359701;19;20624;-59
2022/11/03 10:54:46;;;;;;;8.82;2.67;;;16.00;99.90;;;;;;7366081;19;20443;-60
2022/11/03 10:57:13;;;;;;;10.38;2.28;;;16.00;99.90;;;;;;7371990;19;20015;-60
2022/11/03 10:59:41;;;;;;;10.20;2.50;;;16.40;99.90;;;;;;7377681;19;20061;-61
2022/11/03 11:02:20;;;;;;;10.15;2.42;;;17.00;99.90;;;;;;7369428;19;20018;-58
2022/11/03 11:04:49;;;;;;;6.60;2.10;;;17.90;99.90;;;;;;7375652;19;20120;-58
2022/11/03 11:07:24;;;;;;;6.68;2.05;;;18.20;99.90;;;;;;7370386;19;20046;-58
2022/11/03 11:09:52;;;;;;;7.85;2.35;;;18.10;99.90;;;;;;7376609;19;20502;-58
2022/11/03 11:12:22;;;;;;;7.35;2.15;;;18.40;99.90;;;;;;7365786;19;20355;-58
2022/11/03 11:15:01;;;;;;;7.22;2.10;;;18.60;99.90;;;;;;7375769;19;20015;-58
2022/11/03 11:17:36;;;;;;;5.63;1.98;;;18.60;99.90;;;;;;7371089;19;20018;-58
2022/11/03 11:20:22;;;;;;;6.05;2.20;;;18.10;99.90;;;;;;7373720;19;20109;-58
2022/11/03 11:22:49;;;;;;;9.70;2.42;;;18.10;99.90;;;;;;7370013;19;20027;-58
2022/11/03 11:25:19;;;;;;;9.15;1.83;;;17.90;99.90;;;;;;7366616;19;20022;-59
2022/11/03 11:27:45;;;;;;;7.10;2.35;;;17.90;99.90;;;;;;7370945;19;20423;-58
2022/11/03 11:30:17;;;;;;;9.32;2.08;;;17.70;99.90;;;;;;7367079;19;20018;-58
2022/11/03 11:32:43;;;;;;;8.48;2.53;;;17.50;99.90;;;;;;7369737;19;20402;-58
2022/11/03 11:35:21;;;;;;;4.80;1.60;;;17.30;99.90;;;;;;7375999;19;20015;-57
2022/11/03 11:37:48;;;;;;;6.65;1.88;;;17.20;99.90;;;;;;7369782;19;20031;-59
2022/11/03 11:40:34;;;;;;;7.80;2.35;;;16.90;99.90;;;;;;7373343;19;20014;-59
2022/11/03 11:43:03;;;;;;;5.35;1.95;;;16.70;99.90;;;;;;7372226;19;20482;-59
2022/11/03 11:46:15;;;;;;;10.80;2.63;;;16.50;99.90;;;;;;7372526;19;20023;-59
2022/11/03 11:48:41;;;;;;;7.95;1.73;;;16.40;99.90;;;;;;7369263;19;20449;-59
2022/11/03 11:51:10;;;;;;;6.93;2.20;;;16.20;99.90;;;;;;7373075;19;20028;-59
2022/11/03 11:53:41;;;;;;;9.98;2.33;;;16.10;99.90;;;;;;7369443;19;21999;-59
2022/11/03 11:56:15;;;;;;;6.20;2.03;;;16.00;99.90;;;;;;7366253;19;20018;-59
2022/11/03 11:58:53;;;;;;;9.30;2.35;;;16.00;99.90;;;;;;7369949;19;20019;-57
2022/11/03 12:01:35;;;;;;;5.20;2.10;;;15.90;99.90;;;;;;7367134;19;20439;-58
2022/11/03 12:04:26;;;;;;;9.98;2.20;;;15.90;99.90;;;;;;7363842;19;20027;-57
2022/11/03 12:06:52;;;;;;;4.55;1.80;;;15.80;99.90;;;;;;7369862;19;20043;-59
2022/11/03 12:09:26;;;;;;;9.52;2.20;;;15.80;99.90;;;;;;7367738;19;20022;-58
2022/11/03 12:11:55;;;;;;;7.90;2.17;;;15.80;99.90;;;;;;7366255;19;20018;-59
2022/11/03 12:14:28;;;;;;;7.07;2.60;;;15.80;99.90;;;;;;7364923;19;20025;-59
2022/11/03 12:17:18;;;;;;;7.50;1.92;;;15.80;99.90;;;;;;7365862;19;20541;-59
2022/11/03 12:19:49;;;;;;;8.63;2.05;;;15.80;99.90;;;;;;7365749;19;20490;-59
2022/11/03 12:22:25;;;;;;;11.40;2.10;;;15.80;99.90;;;;;;7365190;19;20541;-59
2022/11/03 12:25:02;;;;;;;9.35;2.42;;;15.80;99.90;;;;;;7363263;19;20881;-60
2022/11/03 12:27:29;;;;;;;7.32;2.10;;;15.70;99.90;;;;;;7364681;19;20037;-59
2022/11/03 12:29:58;;;;;;;7.10;2.05;;;15.70;99.90;;;;;;7362683;19;20018;-60
2022/11/03 12:32:25;;;;;;;7.97;2.00;;;15.70;99.90;;;;;;7366628;19;20021;-60
2022/11/03 12:34:55;;;;;;;9.85;2.55;;;15.60;99.90;;;;;;7362575;19;20010;-58
2022/11/03 12:37:22;;;;;;;7.57;1.65;;;15.60;99.90;;;;;;7365775;19;20576;-58
2022/11/03 12:39:48;;;;;;;5.90;1.73;;;15.70;99.90;;;;;;7364517;19;20313;-57
2022/11/03 12:42:15;;;;;;;5.97;1.60;;;15.90;99.90;;;;;;7365532;19;20407;-58
2022/11/03 12:44:41;;;;;;;6.45;2.10;;;16.20;99.90;;;;;;7367083;19;20053;-58
2022/11/03 12:47:08;;;;;;;8.73;1.98;;;16.40;99.90;;;;;;7368492;19;20707;-58
2022/11/03 12:49:35;;;;;;;6.22;1.95;;;16.60;99.90;;;;;;7366241;19;20014;-58
2022/11/03 12:52:05;;;;;;;6.30;2.63;;;17.00;99.90;;;;;;7365802;19;20018;-58
2022/11/03 12:54:33;;;;;;;8.63;3.72;;;17.20;99.90;;;;;;7361801;19;20110;-58
2022/11/03 12:56:59;;;;;;;10.95;5.45;;;17.30;99.90;;;;;;7364502;19;20034;-58
2022/11/03 12:59:26;;;;;;;6.50;1.85;;;17.50;99.90;;;;;;7366422;19;20025;-57
2022/11/03 13:01:52;;;;;;;5.72;2.40;;;18.00;99.90;;;;;;7363523;19;20605;-61
2022/11/03 13:04:19;;;;;;;6.63;2.03;;;18.00;99.90;;;;;;7368941;19;20454;-61
2022/11/03 13:06:45;;;;;;;6.75;2.78;;;18.40;99.90;;;;;;7371493;19;20483;-59
2022/11/03 13:09:11;;;;;;;7.13;2.83;;;18.50;99.90;;;;;;7367458;19;20506;-61
2022/11/03 13:14:25;;;;;;;8.10;1.73;;;17.90;99.90;;;;;;7364931;19;20023;-58
2022/11/03 13:16:51;;;;;;;5.82;2.10;;;17.80;99.90;;;;;;7364290;19;20023;-58
2022/11/03 13:19:19;;;;;;;6.68;3.53;;;17.60;99.90;;;;;;7365437;19;20022;-57
2022/11/03 13:21:45;;;;;;;7.15;1.63;;;17.50;99.90;;;;;;7364960;19;20509;-56
2022/11/03 13:24:12;;;;;;;6.82;3.28;;;17.20;99.90;;;;;;7367102;19;20486;-56
2022/11/03 13:26:38;;;;;;;5.25;1.63;;;17.00;99.90;;;;;;7367609;19;20381;-53